Time;durP1;ratioP1;P1;durP2;ratioP2;P2;SDS_P1;SDS_P2;PMS_P1;PMS_P2;Temp;Humidity;BMP_temperature;BMP_pressure;BME280_temperature;BME280_humidity;BME280_pressure;Samples;Min_cycle;Max_cycle;Signal;HPM_P1;HPM_P2
2022/01/06 00:00:58;;;;;;;11.80;4.63;;;5.30;98.40;;;;;;5057812;28;20482;-47
2022/01/06 00:03:25;;;;;;;14.77;5.67;;;5.30;98.50;;;;;;5039548;28;20581;-47
2022/01/06 00:05:51;;;;;;;7.27;3.43;;;5.20;98.50;;;;;;5054954;28;20488;-48
2022/01/06 00:08:18;;;;;;;10.83;3.70;;;5.20;98.60;;;;;;5052512;28;20502;-48
2022/01/06 00:10:48;;;;;;;11.13;4.40;;;5.30;98.50;;;;;;5063006;28;20484;-49
2022/01/06 00:13:18;;;;;;;18.93;5.83;;;5.30;98.50;;;;;;5054810;28;20588;-47
2022/01/06 00:16:01;;;;;;;8.03;3.57;;;5.30;98.40;;;;;;5045973;28;20542;-48
2022/01/06 00:23:02;;;;;;;12.53;3.97;;;5.30;98.40;;;;;;5065816;28;20567;-47
2022/01/06 00:24:12;;;;;;;8.73;3.20;;;5.30;98.20;;;;;;4982396;28;20484;-48
2022/01/06 00:26:40;;;;;;;7.90;3.60;;;5.30;98.40;;;;;;5052389;28;20869;-47
2022/01/06 00:29:08;;;;;;;4.60;3.93;;;5.30;98.70;;;;;;5049097;28;20479;-48
2022/01/06 00:31:35;;;;;;;8.60;3.30;;;5.30;98.70;;;;;;5038628;28;20840;-47
2022/01/06 00:34:02;;;;;;;4.40;3.70;;;5.30;98.60;;;;;;5043502;28;20758;-48
2022/01/06 00:36:29;;;;;;;8.57;4.70;;;5.30;98.70;;;;;;5043733;28;20480;-48
2022/01/06 00:38:56;;;;;;;7.07;4.10;;;5.40;98.60;;;;;;5042822;28;20908;-47
2022/01/06 00:41:23;;;;;;;10.20;4.20;;;5.30;98.50;;;;;;5047365;28;20488;-48
2022/01/06 00:43:51;;;;;;;13.63;4.60;;;5.40;98.70;;;;;;5033701;28;20488;-48
2022/01/06 00:46:17;;;;;;;5.43;3.57;;;5.40;98.50;;;;;;5044837;28;21413;-47
2022/01/06 00:48:44;;;;;;;8.43;3.60;;;5.40;98.40;;;;;;5051622;28;20961;-48
2022/01/06 00:51:11;;;;;;;4.43;3.40;;;5.40;98.30;;;;;;5055926;28;20560;-48
2022/01/06 00:53:37;;;;;;;13.20;4.40;;;5.40;98.30;;;;;;5046354;28;21139;-48
2022/01/06 00:56:04;;;;;;;11.73;4.10;;;5.40;98.40;;;;;;5058059;28;20503;-48
2022/01/06 00:58:31;;;;;;;14.50;5.23;;;5.50;98.30;;;;;;5050506;28;20881;-47
2022/01/06 01:00:59;;;;;;;7.00;3.00;;;5.50;98.40;;;;;;5061837;28;20567;-47
2022/01/06 01:03:27;;;;;;;7.20;4.30;;;5.40;98.20;;;;;;5039822;28;20488;-47
2022/01/06 01:05:55;;;;;;;5.93;2.93;;;5.50;98.30;;;;;;5067272;28;20558;-48
2022/01/06 01:08:24;;;;;;;12.30;4.70;;;5.50;98.20;;;;;;5058303;28;20569;-48
2022/01/06 01:10:52;;;;;;;5.07;3.60;;;5.50;98.20;;;;;;5059523;28;21455;-47
2022/01/06 01:13:27;;;;;;;7.20;4.43;;;5.50;98.30;;;;;;5056633;28;20485;-48
2022/01/06 01:15:58;;;;;;;13.60;4.20;;;5.50;98.20;;;;;;5055395;28;20481;-48
2022/01/06 01:18:26;;;;;;;9.60;4.10;;;5.50;98.20;;;;;;5054393;28;20444;-48
2022/01/06 01:20:54;;;;;;;11.60;4.63;;;5.40;98.20;;;;;;5046769;28;20486;-48
2022/01/06 01:23:22;;;;;;;6.53;3.90;;;5.50;98.20;;;;;;5056984;28;20485;-48
2022/01/06 01:25:50;;;;;;;6.70;4.43;;;5.50;98.30;;;;;;5061014;28;20492;-48
2022/01/06 01:28:17;;;;;;;8.23;4.67;;;5.50;98.30;;;;;;5054845;28;20495;-48
2022/01/06 01:31:00;;;;;;;11.40;4.30;;;5.50;98.40;;;;;;5057960;28;20488;-48
2022/01/06 01:33:30;;;;;;;10.30;3.43;;;5.50;98.20;;;;;;5058355;28;20494;-48
2022/01/06 01:35:57;;;;;;;8.00;4.67;;;5.50;98.30;;;;;;5058774;28;20539;-48
2022/01/06 01:38:24;;;;;;;14.33;4.87;;;5.50;98.20;;;;;;5056353;28;20493;-48
2022/01/06 01:40:51;;;;;;;18.70;4.57;;;5.50;98.20;;;;;;5046216;28;20481;-48
2022/01/06 01:43:17;;;;;;;10.30;4.27;;;5.50;98.30;;;;;;5058924;28;20493;-48
2022/01/06 01:45:46;;;;;;;6.97;4.07;;;5.50;98.40;;;;;;5044822;28;20523;-50
2022/01/06 01:48:21;;;;;;;12.93;3.93;;;5.50;98.50;;;;;;5055435;28;20911;-48
2022/01/06 01:50:49;;;;;;;6.73;3.20;;;5.50;98.40;;;;;;5057219;28;20479;-50
2022/01/06 01:53:16;;;;;;;6.47;3.37;;;5.50;98.40;;;;;;5060472;28;20493;-48
2022/01/06 01:55:43;;;;;;;11.70;4.50;;;5.40;98.40;;;;;;5059257;28;20558;-48
2022/01/06 01:58:09;;;;;;;9.73;4.20;;;5.40;98.70;;;;;;5048252;28;20476;-47
2022/01/06 02:00:37;;;;;;;14.07;4.30;;;5.40;98.70;;;;;;5060612;28;20545;-48
2022/01/06 02:03:04;;;;;;;6.40;3.97;;;5.40;98.70;;;;;;5052767;28;20538;-48
2022/01/06 02:05:31;;;;;;;12.70;4.40;;;5.40;98.60;;;;;;5045222;28;20488;-48
2022/01/06 02:07:59;;;;;;;11.47;4.03;;;5.40;98.60;;;;;;5076856;28;20496;-48
2022/01/06 02:10:27;;;;;;;10.67;5.13;;;5.40;98.70;;;;;;5056923;28;21164;-48
2022/01/06 02:12:56;;;;;;;7.43;3.70;;;5.50;98.70;;;;;;5055514;28;20476;-49
2022/01/06 02:15:23;;;;;;;19.27;8.07;;;5.50;98.70;;;;;;5055448;28;20493;-48
2022/01/06 02:17:50;;;;;;;12.73;4.30;;;5.40;98.60;;;;;;5069151;28;20486;-48
2022/01/06 02:20:20;;;;;;;16.10;4.40;;;5.40;98.80;;;;;;5057788;28;20469;-48
2022/01/06 02:22:47;;;;;;;12.37;4.40;;;5.40;98.80;;;;;;5077934;28;20519;-48
2022/01/06 02:25:16;;;;;;;7.60;3.80;;;5.40;98.80;;;;;;5062355;28;21016;-48
2022/01/06 02:27:44;;;;;;;11.20;5.53;;;5.40;98.80;;;;;;5055938;28;20485;-48
2022/01/06 02:30:12;;;;;;;10.13;3.43;;;5.50;98.70;;;;;;5052812;28;20545;-48
2022/01/06 02:32:38;;;;;;;14.40;5.00;;;5.40;98.60;;;;;;5067996;28;20480;-48
2022/01/06 02:35:07;;;;;;;17.70;6.17;;;5.40;98.60;;;;;;5060146;28;20485;-48
2022/01/06 02:37:36;;;;;;;11.90;5.20;;;5.40;98.80;;;;;;5056423;28;20483;-48
2022/01/06 02:40:07;;;;;;;10.33;5.30;;;5.40;98.80;;;;;;5071245;28;20814;-47
2022/01/06 02:42:34;;;;;;;9.63;4.87;;;5.40;98.80;;;;;;5051247;28;20966;-47
2022/01/06 02:45:01;;;;;;;26.73;6.07;;;5.40;98.80;;;;;;5055424;28;20510;-47
2022/01/06 02:47:28;;;;;;;14.23;5.80;;;5.40;98.80;;;;;;5060374;28;21020;-48
2022/01/06 02:49:55;;;;;;;11.33;5.43;;;5.40;98.80;;;;;;5055355;28;20503;-48
2022/01/06 02:52:21;;;;;;;14.40;4.83;;;5.40;98.80;;;;;;5058833;28;20542;-48
2022/01/06 02:54:50;;;;;;;15.53;4.57;;;5.40;98.80;;;;;;5057762;28;20484;-49
2022/01/06 02:57:16;;;;;;;9.67;4.73;;;5.40;98.90;;;;;;5051664;28;20493;-48
2022/01/06 02:59:43;;;;;;;18.80;4.70;;;5.40;98.80;;;;;;5081486;27;20562;-48
2022/01/06 03:02:10;;;;;;;5.17;3.70;;;5.40;98.70;;;;;;5076733;27;20884;-48
2022/01/06 03:04:37;;;;;;;10.63;4.60;;;5.40;98.80;;;;;;5056331;28;20521;-48
2022/01/06 03:07:04;;;;;;;8.90;4.00;;;5.40;98.90;;;;;;5053263;28;20559;-48
2022/01/06 03:09:38;;;;;;;19.03;4.83;;;5.40;98.80;;;;;;5058062;28;21238;-47
2022/01/06 03:12:11;;;;;;;12.03;5.13;;;5.40;98.80;;;;;;5056122;28;20512;-48
2022/01/06 03:14:38;;;;;;;12.63;4.73;;;5.40;99.30;;;;;;5063321;28;20483;-47
2022/01/06 03:17:05;;;;;;;10.00;4.10;;;5.40;99.00;;;;;;5048010;28;20570;-47
2022/01/06 03:19:32;;;;;;;11.00;5.53;;;5.50;99.00;;;;;;5066842;28;20567;-47
2022/01/06 03:21:58;;;;;;;8.63;5.20;;;5.40;98.90;;;;;;5060775;28;20478;-48
2022/01/06 03:24:25;;;;;;;5.20;4.70;;;5.40;99.10;;;;;;5055014;28;20539;-49
2022/01/06 03:26:52;;;;;;;13.03;4.13;;;5.40;99.00;;;;;;5076468;28;20883;-48
2022/01/06 03:29:20;;;;;;;11.80;4.13;;;5.30;99.00;;;;;;5059297;28;21725;-48
2022/01/06 03:31:47;;;;;;;10.23;4.27;;;5.30;99.10;;;;;;5051667;28;20492;-48
2022/01/06 03:34:14;;;;;;;11.80;5.37;;;5.30;99.20;;;;;;5074796;28;20551;-48
2022/01/06 03:36:41;;;;;;;16.37;4.90;;;5.30;99.20;;;;;;5058292;28;20483;-48
2022/01/06 03:39:07;;;;;;;12.07;4.57;;;5.40;99.10;;;;;;5051954;28;20489;-48
2022/01/06 03:41:34;;;;;;;13.47;6.90;;;5.40;99.20;;;;;;5106299;27;20529;-48
2022/01/06 03:44:01;;;;;;;9.00;5.13;;;5.40;99.20;;;;;;5060233;28;20477;-48
2022/01/06 03:46:29;;;;;;;11.23;5.40;;;5.40;99.00;;;;;;5060114;28;20478;-48
2022/01/06 03:48:56;;;;;;;17.53;5.10;;;5.40;99.10;;;;;;5045433;28;21034;-48
2022/01/06 03:51:23;;;;;;;13.90;4.70;;;5.40;99.10;;;;;;5065070;28;20472;-48
2022/01/06 03:53:51;;;;;;;14.37;5.83;;;5.50;99.10;;;;;;5061878;28;20546;-49
2022/01/06 03:56:18;;;;;;;12.00;5.80;;;5.40;99.00;;;;;;5056188;28;20512;-48
2022/01/06 03:58:45;;;;;;;10.20;5.40;;;5.30;99.10;;;;;;5056893;28;20485;-49
2022/01/06 04:01:12;;;;;;;16.30;4.93;;;5.40;99.20;;;;;;5062613;28;20946;-48
2022/01/06 04:03:40;;;;;;;12.80;5.33;;;5.30;99.10;;;;;;5086640;27;20548;-48
2022/01/06 04:06:10;;;;;;;10.50;6.30;;;5.30;99.30;;;;;;5080851;27;20488;-48
2022/01/06 04:08:36;;;;;;;6.23;4.80;;;5.30;99.30;;;;;;5060045;28;20994;-51
2022/01/06 04:11:03;;;;;;;21.87;6.43;;;5.30;99.30;;;;;;5060637;28;20481;-48
2022/01/06 04:13:32;;;;;;;15.30;5.40;;;5.30;99.50;;;;;;5069986;28;20476;-48
2022/01/06 04:16:01;;;;;;;9.53;5.50;;;5.30;99.20;;;;;;5050873;28;20472;-48
2022/01/06 04:18:28;;;;;;;22.00;6.03;;;5.20;99.10;;;;;;5059147;28;20491;-48
2022/01/06 04:20:56;;;;;;;25.17;8.33;;;5.20;99.00;;;;;;5056138;28;20484;-48
2022/01/06 04:23:23;;;;;;;8.80;5.20;;;5.20;98.90;;;;;;5054056;28;20532;-48
2022/01/06 04:25:50;;;;;;;11.20;6.67;;;5.20;98.90;;;;;;5060080;28;20545;-49
2022/01/06 04:28:17;;;;;;;11.30;5.87;;;5.20;98.80;;;;;;5049167;28;20501;-48
2022/01/06 04:30:44;;;;;;;10.50;6.40;;;5.10;98.80;;;;;;5059048;28;20469;-48
2022/01/06 04:33:11;;;;;;;7.13;4.83;;;5.00;98.80;;;;;;5057909;28;21301;-48
2022/01/06 04:35:37;;;;;;;12.70;6.30;;;5.00;99.10;;;;;;5058656;28;20542;-47
2022/01/06 04:38:05;;;;;;;12.63;5.13;;;5.00;99.10;;;;;;5049772;28;20546;-48
2022/01/06 04:40:32;;;;;;;10.30;5.30;;;5.00;99.10;;;;;;5058056;28;20494;-48
2022/01/06 04:42:59;;;;;;;8.43;4.43;;;5.00;99.10;;;;;;5060560;28;20476;-48
2022/01/06 04:45:25;;;;;;;12.33;5.97;;;4.90;99.10;;;;;;5061031;28;21237;-48
2022/01/06 04:47:52;;;;;;;14.27;5.83;;;4.90;99.10;;;;;;5051965;28;20486;-47
2022/01/06 04:50:19;;;;;;;11.53;5.40;;;4.90;99.10;;;;;;5058181;28;20492;-50
2022/01/06 04:52:46;;;;;;;9.60;5.87;;;4.90;99.10;;;;;;5058398;28;20954;-48
2022/01/06 04:55:14;;;;;;;10.33;5.63;;;4.90;99.30;;;;;;5058106;28;20959;-48
2022/01/06 04:57:40;;;;;;;13.27;5.70;;;4.90;99.20;;;;;;5058138;28;20859;-47
2022/01/06 05:00:08;;;;;;;7.40;4.20;;;4.90;99.20;;;;;;5058848;28;20485;-47
2022/01/06 05:02:35;;;;;;;16.40;6.10;;;4.90;99.20;;;;;;5058676;28;20537;-48
2022/01/06 05:05:02;;;;;;;19.70;5.70;;;4.90;99.30;;;;;;5060599;28;20485;-47
2022/01/06 05:07:28;;;;;;;10.43;6.37;;;4.90;99.30;;;;;;5056962;28;20484;-48
2022/01/06 05:09:55;;;;;;;11.03;5.47;;;4.90;99.30;;;;;;5054785;28;20550;-47
2022/01/06 05:12:23;;;;;;;14.33;5.10;;;5.00;99.30;;;;;;5061290;28;20512;-48
2022/01/06 05:14:50;;;;;;;28.37;7.70;;;5.00;99.40;;;;;;5048980;28;20478;-48
2022/01/06 05:17:17;;;;;;;10.87;6.20;;;5.00;99.40;;;;;;5070177;27;20551;-48
2022/01/06 05:19:43;;;;;;;11.40;4.63;;;5.00;99.30;;;;;;5072994;27;21068;-48
2022/01/06 05:22:10;;;;;;;9.83;4.63;;;4.90;99.20;;;;;;5039980;28;20490;-48
2022/01/06 05:24:38;;;;;;;12.43;5.30;;;4.90;99.20;;;;;;5057238;28;21099;-48
2022/01/06 05:27:09;;;;;;;13.43;5.27;;;4.80;99.10;;;;;;5054004;28;20493;-48
2022/01/06 05:29:37;;;;;;;17.20;6.07;;;4.80;98.80;;;;;;5082748;28;20545;-47
2022/01/06 05:32:04;;;;;;;13.83;5.70;;;4.70;99.10;;;;;;5076508;28;20573;-48
2022/01/06 05:34:31;;;;;;;19.33;6.13;;;4.70;99.30;;;;;;5075623;28;20549;-48
2022/01/06 05:36:58;;;;;;;18.17;6.87;;;4.70;99.20;;;;;;5055650;28;21368;-47
2022/01/06 05:39:24;;;;;;;19.80;5.00;;;4.60;99.20;;;;;;5051865;28;20538;-48
2022/01/06 05:41:51;;;;;;;16.93;5.97;;;4.60;99.30;;;;;;5071811;28;21046;-48
2022/01/06 05:44:18;;;;;;;8.93;5.53;;;4.60;99.30;;;;;;5057439;28;21055;-47
2022/01/06 05:46:47;;;;;;;14.37;6.53;;;4.60;99.40;;;;;;5058205;28;21254;-48
2022/01/06 05:49:14;;;;;;;24.50;7.13;;;4.60;99.40;;;;;;5058110;28;20480;-48
2022/01/06 05:51:41;;;;;;;10.87;6.63;;;4.70;99.30;;;;;;5057983;28;20534;-47
2022/01/06 05:54:08;;;;;;;10.80;6.63;;;4.70;99.30;;;;;;5055795;28;20484;-51
2022/01/06 05:56:35;;;;;;;12.10;5.70;;;4.60;99.30;;;;;;5058550;28;21402;-48
2022/01/06 05:59:02;;;;;;;12.20;6.40;;;4.70;99.30;;;;;;5055571;28;20479;-48
2022/01/06 06:01:29;;;;;;;13.63;5.87;;;4.70;99.30;;;;;;5059418;28;20538;-48
2022/01/06 06:03:57;;;;;;;9.47;5.97;;;4.70;99.20;;;;;;5058642;28;21002;-50
2022/01/06 06:06:24;;;;;;;12.13;6.07;;;4.70;99.20;;;;;;5059609;28;21038;-48
2022/01/06 06:08:50;;;;;;;11.67;5.60;;;4.70;99.20;;;;;;5054699;28;20545;-48
2022/01/06 06:11:17;;;;;;;13.80;5.33;;;4.70;99.20;;;;;;5055622;28;21029;-47
2022/01/06 06:13:44;;;;;;;11.73;6.23;;;4.70;99.20;;;;;;5057590;28;20472;-48
2022/01/06 06:16:10;;;;;;;8.63;5.20;;;4.60;99.20;;;;;;5067342;28;20540;-48
2022/01/06 06:18:37;;;;;;;6.90;5.13;;;4.60;99.30;;;;;;5052848;28;20537;-48
2022/01/06 06:21:06;;;;;;;15.73;6.13;;;4.60;99.20;;;;;;5084810;28;20490;-48
2022/01/06 06:23:33;;;;;;;16.63;6.00;;;4.60;99.30;;;;;;5061722;28;20489;-48
2022/01/06 06:26:00;;;;;;;10.23;6.17;;;4.50;99.10;;;;;;5057900;28;20492;-48
2022/01/06 06:28:26;;;;;;;10.40;6.40;;;4.30;99.00;;;;;;5055176;28;20507;-48
2022/01/06 06:30:53;;;;;;;12.00;5.83;;;4.30;99.10;;;;;;5060238;28;20470;-48
2022/01/06 06:33:20;;;;;;;18.67;5.47;;;4.20;99.10;;;;;;5058288;28;21161;-48
2022/01/06 06:35:47;;;;;;;11.93;5.83;;;4.20;99.20;;;;;;5046521;28;20532;-48
2022/01/06 06:38:15;;;;;;;11.30;6.47;;;4.20;99.20;;;;;;5063416;28;20477;-48
2022/01/06 06:40:41;;;;;;;10.83;5.90;;;4.20;99.20;;;;;;5063012;28;20484;-48
2022/01/06 06:43:12;;;;;;;16.00;6.13;;;4.20;99.20;;;;;;5052851;28;20484;-48
2022/01/06 06:45:38;;;;;;;19.40;6.20;;;4.10;99.30;;;;;;5055825;28;20489;-48
2022/01/06 06:48:05;;;;;;;30.67;7.97;;;4.10;99.40;;;;;;5053518;28;20884;-48
2022/01/06 06:50:32;;;;;;;15.20;6.50;;;4.10;99.50;;;;;;5054739;28;20566;-47
2022/01/06 06:52:58;;;;;;;18.83;6.70;;;4.10;99.50;;;;;;5062010;28;20497;-52
2022/01/06 06:55:26;;;;;;;24.57;7.50;;;4.10;99.50;;;;;;5051663;28;20480;-48
2022/01/06 06:57:53;;;;;;;15.87;7.23;;;4.10;99.50;;;;;;5049977;28;20532;-47
2022/01/06 07:00:20;;;;;;;19.17;7.13;;;4.20;99.50;;;;;;5056629;28;20495;-48
2022/01/06 07:02:47;;;;;;;19.60;8.10;;;4.20;99.50;;;;;;5047685;28;20476;-48
2022/01/06 07:05:15;;;;;;;23.57;8.00;;;4.20;99.40;;;;;;5045111;28;20486;-48
2022/01/06 07:07:42;;;;;;;17.73;10.33;;;4.10;99.40;;;;;;5052404;28;21009;-47
2022/01/06 07:10:09;;;;;;;14.30;6.27;;;4.10;99.50;;;;;;5041415;28;20495;-48
2022/01/06 07:12:39;;;;;;;17.20;7.50;;;4.10;99.40;;;;;;5053195;28;20480;-51
2022/01/06 07:15:08;;;;;;;11.20;6.17;;;4.20;99.40;;;;;;5048189;28;21159;-48
2022/01/06 07:17:35;;;;;;;23.23;8.60;;;4.10;99.40;;;;;;5042603;28;20479;-48
2022/01/06 07:20:01;;;;;;;17.30;8.47;;;4.10;99.50;;;;;;5064474;28;20480;-48
2022/01/06 07:22:28;;;;;;;13.20;6.97;;;4.00;99.40;;;;;;5057134;28;20499;-48
2022/01/06 07:24:55;;;;;;;20.33;6.97;;;4.00;99.40;;;;;;5061495;28;20476;-48
2022/01/06 07:27:22;;;;;;;25.13;8.47;;;4.00;99.40;;;;;;5063275;28;20664;-48
2022/01/06 07:29:50;;;;;;;21.23;7.67;;;4.00;99.40;;;;;;5060796;28;20539;-52
2022/01/06 07:32:16;;;;;;;20.10;8.20;;;3.90;99.50;;;;;;5055519;28;20559;-48
2022/01/06 07:34:43;;;;;;;16.47;7.20;;;3.80;99.60;;;;;;5058037;28;20484;-48
2022/01/06 07:37:10;;;;;;;12.63;7.40;;;3.70;99.50;;;;;;5051994;28;20481;-48
2022/01/06 07:39:37;;;;;;;19.90;6.57;;;3.70;99.50;;;;;;5047156;28;20487;-48
2022/01/06 07:42:04;;;;;;;23.57;7.90;;;3.70;99.80;;;;;;5058903;28;20568;-48
2022/01/06 07:44:31;;;;;;;10.60;6.70;;;3.80;99.80;;;;;;5060947;28;20487;-47
2022/01/06 07:47:00;;;;;;;16.33;6.87;;;3.80;99.80;;;;;;5059194;28;21223;-48
2022/01/06 07:49:27;;;;;;;15.30;6.83;;;3.90;99.80;;;;;;5053378;28;20925;-48
2022/01/06 07:51:54;;;;;;;24.90;7.63;;;3.90;99.80;;;;;;5066618;28;20471;-47
2022/01/06 07:54:21;;;;;;;14.50;7.90;;;3.90;99.70;;;;;;5062689;28;20541;-48
2022/01/06 07:56:48;;;;;;;13.87;6.83;;;3.90;99.30;;;;;;5062245;28;20495;-48
2022/01/06 07:59:14;;;;;;;27.87;7.57;;;3.80;99.10;;;;;;5033832;28;20476;-48
2022/01/06 08:01:41;;;;;;;14.83;7.00;;;3.70;99.30;;;;;;5069072;28;20524;-48
2022/01/06 08:04:09;;;;;;;14.80;8.37;;;3.60;99.40;;;;;;5066133;28;20555;-48
2022/01/06 08:06:36;;;;;;;11.90;5.93;;;3.60;99.20;;;;;;5066989;28;20535;-48
2022/01/06 08:09:03;;;;;;;11.50;6.60;;;3.50;99.20;;;;;;5055430;28;20513;-49
2022/01/06 08:11:29;;;;;;;15.67;6.50;;;3.40;99.40;;;;;;5061951;28;21052;-48
2022/01/06 08:13:56;;;;;;;1.80;1.40;;;3.50;99.70;;;;;;5067771;28;20755;-48
2022/01/06 08:16:23;;;;;;;10.43;5.20;;;3.40;99.90;;;;;;5065170;28;20541;-48
2022/01/06 08:18:49;;;;;;;5.33;3.00;;;3.40;99.90;;;;;;5069599;28;21003;-48
2022/01/06 08:21:17;;;;;;;10.10;4.17;;;3.40;99.90;;;;;;5065442;28;20475;-48
2022/01/06 08:23:44;;;;;;;5.60;4.27;;;3.40;99.90;;;;;;5089215;27;20898;-47
2022/01/06 08:26:11;;;;;;;13.90;7.57;;;3.40;99.90;;;;;;5071439;27;20475;-48
2022/01/06 08:28:37;;;;;;;15.70;8.07;;;3.60;99.90;;;;;;5082889;27;20480;-48
2022/01/06 08:31:04;;;;;;;16.03;5.90;;;4.40;99.90;;;;;;5079330;27;20481;-48
2022/01/06 08:33:31;;;;;;;21.50;7.30;;;5.00;99.80;;;;;;5062796;27;20567;-48
2022/01/06 08:35:57;;;;;;;16.33;6.97;;;5.70;98.80;;;;;;5068355;28;20888;-48
2022/01/06 08:38:25;;;;;;;19.57;7.43;;;6.70;99.90;;;;;;5059910;28;20488;-48
2022/01/06 08:40:52;;;;;;;16.67;5.93;;;7.50;97.30;;;;;;5065511;28;20648;-48
2022/01/06 08:43:20;;;;;;;13.73;6.63;;;8.00;97.30;;;;;;5065901;28;20532;-48
2022/01/06 08:45:47;;;;;;;9.27;5.77;;;7.90;96.00;;;;;;5066329;27;20490;-48
2022/01/06 08:48:13;;;;;;;16.60;7.00;;;7.90;95.60;;;;;;5084370;27;20758;-48
2022/01/06 08:50:40;;;;;;;19.03;6.30;;;7.70;95.70;;;;;;5063464;28;20894;-48
2022/01/06 08:53:07;;;;;;;10.13;6.30;;;7.90;96.30;;;;;;5082352;27;20475;-48
2022/01/06 08:55:35;;;;;;;20.80;6.47;;;8.10;95.70;;;;;;5058893;27;20550;-48
2022/01/06 08:58:02;;;;;;;13.50;6.23;;;8.50;95.70;;;;;;5059904;28;20487;-48
2022/01/06 09:00:30;;;;;;;14.20;6.97;;;8.60;95.40;;;;;;5054849;28;20471;-48
2022/01/06 09:02:57;;;;;;;13.60;6.07;;;8.60;94.90;;;;;;5056895;27;21022;-49
2022/01/06 09:05:24;;;;;;;14.73;6.60;;;8.40;94.90;;;;;;5083797;27;20520;-48
2022/01/06 09:07:51;;;;;;;18.10;9.47;;;7.90;94.90;;;;;;5069923;28;20492;-48
2022/01/06 09:10:19;;;;;;;12.43;8.67;;;7.50;95.40;;;;;;5069288;28;20878;-48
2022/01/06 09:12:47;;;;;;;19.57;10.10;;;7.30;95.70;;;;;;5077833;27;20480;-48
2022/01/06 09:15:13;;;;;;;20.30;9.73;;;7.10;96.60;;;;;;5081042;28;20558;-48
2022/01/06 09:17:40;;;;;;;13.53;9.20;;;7.30;96.80;;;;;;5086984;27;20801;-48
2022/01/06 09:20:08;;;;;;;17.57;8.37;;;7.50;96.30;;;;;;5066729;28;20482;-49
2022/01/06 09:22:35;;;;;;;19.10;9.93;;;7.70;96.40;;;;;;5068167;28;21159;-49
2022/01/06 09:25:02;;;;;;;28.03;9.20;;;8.00;96.70;;;;;;5067729;28;20471;-48
2022/01/06 09:27:30;;;;;;;12.70;7.50;;;8.30;96.50;;;;;;5065870;28;20896;-48
2022/01/06 09:29:58;;;;;;;18.33;9.00;;;8.40;95.70;;;;;;5065983;28;21045;-49
2022/01/06 09:32:25;;;;;;;19.30;9.27;;;8.60;96.30;;;;;;5058223;28;21367;-49
2022/01/06 09:34:52;;;;;;;14.40;8.50;;;8.80;95.90;;;;;;5081105;28;20538;-49
2022/01/06 09:37:19;;;;;;;15.03;8.60;;;8.90;95.70;;;;;;5058945;27;20795;-48
2022/01/06 09:39:47;;;;;;;17.20;7.73;;;9.20;95.80;;;;;;5096536;27;20484;-49
2022/01/06 09:42:14;;;;;;;9.43;7.70;;;9.30;95.20;;;;;;5062882;28;20528;-48
2022/01/06 09:44:41;;;;;;;17.93;8.37;;;9.30;95.30;;;;;;5064672;28;20857;-49
2022/01/06 09:47:09;;;;;;;14.30;6.70;;;9.20;94.70;;;;;;5065971;28;20485;-48
2022/01/06 09:49:37;;;;;;;12.60;6.53;;;9.10;94.70;;;;;;5067156;28;20525;-49
2022/01/06 09:52:05;;;;;;;13.37;7.60;;;8.90;94.40;;;;;;5071843;28;20549;-48
2022/01/06 09:54:32;;;;;;;19.63;6.90;;;8.50;94.30;;;;;;5070373;28;20489;-48
2022/01/06 09:56:58;;;;;;;16.30;7.13;;;8.40;94.90;;;;;;5066595;28;20665;-49
2022/01/06 09:59:25;;;;;;;21.07;7.53;;;8.40;95.20;;;;;;5068109;28;20489;-48
2022/01/06 10:01:52;;;;;;;11.30;7.33;;;8.40;95.50;;;;;;5067570;28;20478;-48
2022/01/06 10:04:25;;;;;;;12.10;6.63;;;8.30;95.50;;;;;;5060175;28;20477;-48
2022/01/06 10:07:00;;;;;;;16.10;7.87;;;8.20;95.50;;;;;;5059986;28;20491;-48
2022/01/06 10:09:27;;;;;;;21.33;6.73;;;8.20;95.70;;;;;;5067610;28;20486;-48
2022/01/06 10:11:56;;;;;;;19.53;7.90;;;8.40;96.30;;;;;;5062346;28;20485;-49
2022/01/06 10:14:31;;;;;;;21.13;8.00;;;8.70;96.50;;;;;;5065588;27;20490;-48
2022/01/06 10:16:59;;;;;;;10.40;6.83;;;8.90;96.10;;;;;;5079198;27;20478;-47
2022/01/06 10:19:27;;;;;;;12.27;6.20;;;9.10;95.30;;;;;;5088198;27;20478;-48
2022/01/06 10:21:57;;;;;;;20.10;7.60;;;9.00;94.20;;;;;;5060307;28;20577;-48
2022/01/06 10:24:26;;;;;;;21.27;6.70;;;9.10;95.30;;;;;;5099376;27;20870;-48
2022/01/06 10:26:54;;;;;;;10.67;6.33;;;8.90;94.10;;;;;;5063749;28;20529;-48
2022/01/06 10:29:22;;;;;;;13.33;6.07;;;8.80;94.60;;;;;;5057105;28;20552;-48
2022/01/06 10:31:49;;;;;;;9.70;7.20;;;8.90;94.70;;;;;;5070104;28;20551;-50
2022/01/06 10:34:16;;;;;;;19.47;6.97;;;9.10;95.00;;;;;;5073116;28;21195;-49
2022/01/06 10:36:48;;;;;;;33.67;7.70;;;9.20;94.90;;;;;;5072963;28;20599;-49
2022/01/06 10:39:15;;;;;;;13.30;7.67;;;9.40;95.20;;;;;;5072695;28;20535;-49
2022/01/06 10:41:42;;;;;;;13.33;6.10;;;9.60;94.80;;;;;;5072872;28;20484;-49
2022/01/06 10:44:13;;;;;;;12.40;5.70;;;9.80;94.40;;;;;;5073185;27;20551;-49
2022/01/06 10:46:42;;;;;;;16.53;7.30;;;9.90;94.80;;;;;;5072128;28;20570;-49
2022/01/06 10:49:11;;;;;;;11.30;5.57;;;10.10;93.50;;;;;;5069200;28;20611;-49
2022/01/06 10:51:41;;;;;;;15.10;5.30;;;10.10;92.50;;;;;;5070502;27;20551;-48
2022/01/06 10:54:28;;;;;;;15.03;5.77;;;10.00;92.60;;;;;;5091297;27;20549;-48
2022/01/06 10:57:00;;;;;;;13.53;6.20;;;9.90;93.80;;;;;;5068516;28;20491;-49
2022/01/06 10:59:29;;;;;;;13.20;4.90;;;9.90;93.20;;;;;;5070357;28;20495;-48
2022/01/06 11:01:56;;;;;;;14.23;4.70;;;9.80;93.50;;;;;;5061669;28;21052;-48
2022/01/06 11:04:23;;;;;;;9.97;4.90;;;9.70;93.80;;;;;;5082155;27;20491;-48
2022/01/06 11:06:51;;;;;;;12.77;6.40;;;9.60;93.50;;;;;;5056319;28;20830;-48
2022/01/06 11:09:18;;;;;;;9.23;5.63;;;9.70;94.00;;;;;;5066518;28;20495;-48
2022/01/06 11:14:32;;;;;;;19.50;5.33;;;9.60;93.10;;;;;;5069787;27;20562;-48
2022/01/06 11:16:59;;;;;;;16.57;5.27;;;9.60;93.80;;;;;;5061980;27;20905;-48
2022/01/06 11:19:29;;;;;;;12.57;8.47;;;9.50;93.50;;;;;;5078903;27;20593;-47
2022/01/06 11:22:02;;;;;;;12.97;6.20;;;9.40;93.30;;;;;;5073093;28;20506;-48
2022/01/06 11:24:29;;;;;;;8.00;4.70;;;9.40;93.80;;;;;;5061379;28;20490;-48
2022/01/06 11:27:02;;;;;;;13.47;4.27;;;9.40;93.60;;;;;;5057493;28;20533;-48
2022/01/06 11:29:32;;;;;;;8.93;4.13;;;9.40;93.30;;;;;;5053188;28;20846;-48
2022/01/06 11:32:00;;;;;;;11.47;6.50;;;9.40;92.70;;;;;;5058306;28;20481;-48
2022/01/06 11:34:28;;;;;;;7.00;4.00;;;9.50;93.00;;;;;;5068686;28;20561;-48
2022/01/06 11:36:57;;;;;;;9.13;5.00;;;9.60;93.20;;;;;;5059324;28;20485;-48
2022/01/06 11:39:27;;;;;;;7.07;3.73;;;9.60;93.10;;;;;;5062538;28;20483;-48
2022/01/06 11:41:54;;;;;;;10.93;4.20;;;9.60;92.70;;;;;;5058644;28;20490;-49
2022/01/06 11:44:24;;;;;;;13.53;4.23;;;9.70;93.00;;;;;;5059992;28;20542;-49
2022/01/06 11:46:53;;;;;;;9.73;4.53;;;9.90;93.20;;;;;;5074858;27;20574;-49
2022/01/06 11:49:35;;;;;;;7.63;3.57;;;10.00;91.70;;;;;;5080312;27;20573;-49
2022/01/06 11:52:10;;;;;;;10.37;4.50;;;10.00;91.60;;;;;;5064920;28;20472;-49
2022/01/06 11:54:48;;;;;;;7.27;4.30;;;10.20;91.90;;;;;;5046132;28;20500;-48
2022/01/06 11:57:15;;;;;;;7.57;4.30;;;10.20;91.50;;;;;;5042419;28;20566;-50
2022/01/06 11:59:44;;;;;;;9.70;3.53;;;10.20;91.30;;;;;;5041925;28;20490;-49
2022/01/06 12:02:20;;;;;;;9.03;3.20;;;10.40;91.90;;;;;;5035972;28;20478;-49
2022/01/06 12:04:55;;;;;;;8.97;3.63;;;10.60;91.40;;;;;;5038808;28;20484;-49
2022/01/06 12:07:22;;;;;;;7.90;3.30;;;10.80;91.30;;;;;;5047152;28;20535;-49
2022/01/06 12:09:56;;;;;;;8.90;3.03;;;11.00;91.10;;;;;;5048113;28;20619;-48
2022/01/06 12:12:33;;;;;;;13.63;3.67;;;11.00;90.50;;;;;;5044315;28;20547;-48
2022/01/06 12:15:13;;;;;;;7.83;2.77;;;11.10;90.60;;;;;;5041672;28;20496;-48
2022/01/06 12:17:46;;;;;;;4.33;3.00;;;11.10;90.80;;;;;;5070447;27;20483;-49
2022/01/06 12:20:22;;;;;;;11.43;3.60;;;11.00;90.50;;;;;;5070091;28;20481;-49
2022/01/06 12:22:49;;;;;;;10.30;3.50;;;11.10;91.00;;;;;;5062259;28;20559;-48
2022/01/06 12:25:16;;;;;;;9.00;3.50;;;11.20;91.20;;;;;;5052972;28;20940;-48
2022/01/06 12:27:48;;;;;;;10.93;3.23;;;11.40;90.10;;;;;;5047897;28;20490;-49
2022/01/06 12:30:17;;;;;;;4.20;2.67;;;11.80;91.50;;;;;;5049314;28;20478;-49
2022/01/06 12:32:56;;;;;;;11.00;3.23;;;11.90;90.40;;;;;;5044904;28;20479;-49
2022/01/06 12:35:38;;;;;;;11.40;3.10;;;12.00;90.50;;;;;;5046192;28;20561;-48
2022/01/06 12:38:04;;;;;;;5.83;2.50;;;12.00;88.90;;;;;;5051203;28;20886;-48
2022/01/06 12:40:33;;;;;;;6.50;3.00;;;11.90;88.60;;;;;;5043249;28;20484;-48
2022/01/06 12:43:00;;;;;;;6.43;2.33;;;11.70;88.30;;;;;;5049809;28;20542;-49
2022/01/06 12:45:28;;;;;;;4.73;2.40;;;11.50;87.70;;;;;;5050283;28;20974;-48
2022/01/06 12:47:55;;;;;;;7.10;2.70;;;11.20;87.50;;;;;;5041356;28;20482;-48
2022/01/06 12:50:22;;;;;;;6.40;2.80;;;11.00;87.70;;;;;;5069029;28;20901;-48
2022/01/06 12:52:49;;;;;;;10.40;3.50;;;10.80;87.60;;;;;;5041729;28;21240;-49
2022/01/06 12:55:15;;;;;;;7.73;3.00;;;10.70;88.30;;;;;;5064742;28;21002;-49
2022/01/06 12:57:51;;;;;;;9.10;2.63;;;10.50;86.90;;;;;;5044711;28;20571;-48